📊 Raw Sensor Data

Showing records 38776 to 38800 of 84,935 total

ID Distance (ft) Battery V Battery A Int Temp (°F) Int Humid (%) Ext Temp (°F) Solar V RSSI SNR Time Stamp
46172 15.5 4.05 0 73 44 75 5.10 -71 8 07/13/2025 09:15 AM
46171 15.5 4.10 0 72 44 74 5.10 -73 8 07/13/2025 09:00 AM
46170 15.5 4.01 0 70 44 74 5.10 -74 7 07/13/2025 08:45 AM
46169 15.5 4.01 0 69 44 72 5.10 -74 8 07/13/2025 08:30 AM
46168 15.5 4.01 0 69 43 70 5.10 -72 8 07/13/2025 08:15 AM
46167 15.5 4.01 0 67 43 72 5.10 -71 8 07/13/2025 08:00 AM
46166 15.5 4.09 61 66 43 69 4.50 -70 8 07/13/2025 07:45 AM
46165 15.4 4.03 22 65 42 70 4.50 -73 8 07/13/2025 07:30 AM
46164 15.4 3.99 -10 63 42 70 4.50 -71 8 07/13/2025 07:15 AM
46163 15.4 4.02 6 61 42 68 4.50 -71 7 07/13/2025 07:00 AM
46162 15.3 3.95 0 59 42 65 4.50 -70 8 07/13/2025 06:45 AM
46161 15.3 3.94 0 57 43 62 4.50 -71 8 07/13/2025 06:30 AM
46160 15.2 3.93 -5 56 43 59 4.50 -70 8 07/13/2025 06:15 AM
46159 15.2 3.92 -27 55 43 57 4.20 -70 8 07/13/2025 06:00 AM
46158 15.2 3.93 -5 55 43 56 1.80 -71 8 07/13/2025 05:45 AM
46157 15.2 3.99 -5 55 43 56 0.10 -70 8 07/13/2025 05:30 AM
46156 15.2 3.94 -5 55 43 56 0.00 -71 8 07/13/2025 05:15 AM
46155 15.2 3.94 -5 55 44 56 0.00 -70 8 07/13/2025 05:00 AM
46154 15.2 3.94 -5 56 44 57 0.00 -71 8 07/13/2025 04:45 AM
46153 15.2 4.00 -5 56 44 57 0.00 -71 7 07/13/2025 04:30 AM
46152 15.2 4.00 -5 56 44 57 0.00 -70 8 07/13/2025 04:15 AM
46151 15.2 3.94 -5 57 44 57 0.00 -71 8 07/13/2025 04:00 AM
46150 15.2 3.94 -5 57 44 58 0.10 -71 8 07/13/2025 03:45 AM
46149 15.2 3.94 -5 57 44 58 0.00 -71 8 07/13/2025 03:30 AM
46148 15.2 3.94 -5 58 44 58 0.00 -71 8 07/13/2025 03:15 AM